createdAt,value
2019-05-20T00:00:14.722Z,999.61
2019-05-20T00:02:21.663Z,999.60
2019-05-20T00:03:06.894Z,999.62
2019-05-20T00:05:08.930Z,999.61
2019-05-20T00:06:08.981Z,999.60
2019-05-20T00:08:10.987Z,999.59
2019-05-20T00:09:11.021Z,999.60
2019-05-20T00:11:13.064Z,999.62
2019-05-20T00:12:13.097Z,999.64
2019-05-20T00:14:05.280Z,999.62
2019-05-20T00:15:05.281Z,999.64
2019-05-20T00:17:07.325Z,999.58
2019-05-20T00:18:07.353Z,999.57
2019-05-20T00:20:09.387Z,999.62
2019-05-20T00:21:09.415Z,999.57
2019-05-20T00:23:01.365Z,999.58
2019-05-20T00:24:01.392Z,999.64
2019-05-20T00:25:53.555Z,999.68
2019-05-20T00:26:53.568Z,999.64
2019-05-20T00:28:55.592Z,999.65
2019-05-20T00:29:55.623Z,999.67
2019-05-20T00:31:57.647Z,999.66
2019-05-20T00:32:57.680Z,999.70
2019-05-20T00:34:59.711Z,999.68
2019-05-20T00:35:59.744Z,999.71
2019-05-20T00:38:01.768Z,999.70
2019-05-20T00:39:01.797Z,999.66
2019-05-20T00:40:54.057Z,999.67
2019-05-20T00:41:53.982Z,999.65
2019-05-20T00:43:56.004Z,999.62
2019-05-20T00:44:56.037Z,999.59
2019-05-20T00:46:58.059Z,999.54
2019-05-20T00:47:58.091Z,999.52
2019-05-20T00:50:00.119Z,999.51
2019-05-20T00:51:00.140Z,999.53
2019-05-20T00:52:52.089Z,999.51
2019-05-20T00:53:52.122Z,999.55
2019-05-20T00:55:54.144Z,999.58
2019-05-20T00:56:54.173Z,999.59
2019-05-20T00:58:56.215Z,999.63
2019-05-20T00:59:56.231Z,999.61
2019-05-20T01:01:58.261Z,999.64
2019-05-20T01:02:58.288Z,999.67
2019-05-20T01:05:00.324Z,999.64
2019-05-20T01:06:00.348Z,999.62
2019-05-20T01:08:02.413Z,999.63
2019-05-20T01:09:02.417Z,999.65
2019-05-20T01:11:04.446Z,999.63
2019-05-20T01:12:04.478Z,999.61
2019-05-20T01:14:06.527Z,999.61
2019-05-20T01:15:06.539Z,999.62
2019-05-20T01:17:08.566Z,999.60
2019-05-20T01:18:08.596Z,999.61
2019-05-20T01:20:10.623Z,999.65
2019-05-20T01:21:10.652Z,999.67
2019-05-20T01:23:02.613Z,999.61
2019-05-20T01:24:02.669Z,999.60
2019-05-20T01:26:04.667Z,999.62
2019-05-20T01:27:04.696Z,999.61
2019-05-20T01:29:06.847Z,999.60
2019-05-20T01:30:06.752Z,999.60
2019-05-20T01:31:58.906Z,999.58
2019-05-20T01:33:12.694Z,999.58
2019-05-20T01:35:00.974Z,999.54
2019-05-20T01:36:00.988Z,999.52
2019-05-20T01:38:03.022Z,999.50
2019-05-20T01:39:03.043Z,999.49
2019-05-20T01:41:05.095Z,999.47
2019-05-20T01:42:05.107Z,999.46
2019-05-20T01:44:07.143Z,999.46
2019-05-20T01:45:07.172Z,999.46
2019-05-20T01:47:09.214Z,999.46
2019-05-20T01:48:09.247Z,999.43
2019-05-20T01:50:11.285Z,999.41
2019-05-20T01:51:11.315Z,999.36
2019-05-20T01:53:03.625Z,999.34
2019-05-20T01:54:03.652Z,999.33
2019-05-20T01:55:55.573Z,999.32
2019-05-20T01:56:55.619Z,999.32
2019-05-20T01:58:57.638Z,999.29
2019-05-20T01:59:57.664Z,999.30
2019-05-20T02:01:59.695Z,999.29
2019-05-20T02:02:59.727Z,999.29
2019-05-20T02:05:01.792Z,999.28
2019-05-20T02:06:01.821Z,999.26
2019-05-20T02:08:03.863Z,999.28
2019-05-20T02:09:03.878Z,999.28
2019-05-20T02:11:05.919Z,999.29
2019-05-20T02:12:05.945Z,999.29
2019-05-20T02:14:07.974Z,999.26
2019-05-20T02:15:08.005Z,999.28
2019-05-20T02:17:10.041Z,999.25
2019-05-20T02:18:10.071Z,999.26
2019-05-20T02:20:12.095Z,999.30
2019-05-20T02:21:12.125Z,999.30
2019-05-20T02:23:04.121Z,999.31
2019-05-20T02:24:04.110Z,999.32
2019-05-20T02:26:06.152Z,999.34
2019-05-20T02:27:06.177Z,999.31
2019-05-20T02:29:08.206Z,999.33
2019-05-20T02:30:08.253Z,999.29
2019-05-20T02:32:10.255Z,999.26
2019-05-20T02:33:10.294Z,999.24
2019-05-20T02:35:12.325Z,999.24
2019-05-20T02:36:12.357Z,999.22
2019-05-20T02:38:14.386Z,999.21
2019-05-20T02:39:14.427Z,999.17
2019-05-20T02:41:16.451Z,999.16
2019-05-20T02:42:23.113Z,999.16
2019-05-20T02:44:08.804Z,999.15
2019-05-20T02:45:08.777Z,999.16
2019-05-20T02:47:00.989Z,999.14
2019-05-20T02:48:01.020Z,999.14
2019-05-20T02:50:03.181Z,999.08
2019-05-20T02:51:03.192Z,999.06
2019-05-20T02:52:55.387Z,998.99
2019-05-20T02:53:55.428Z,999.02
2019-05-20T02:55:47.666Z,999.05
2019-05-20T02:56:47.655Z,999.08
2019-05-20T02:58:39.874Z,999.09
2019-05-20T02:59:39.910Z,999.08
2019-05-20T03:01:32.113Z,999.06
2019-05-20T03:02:32.146Z,999.05
2019-05-20T03:04:34.276Z,999.04
2019-05-20T03:05:34.354Z,999.02
2019-05-20T03:07:26.527Z,999.01
2019-05-20T03:08:26.548Z,999.05
2019-05-20T03:10:18.756Z,999.07
2019-05-20T03:11:18.781Z,999.08
2019-05-20T03:13:20.933Z,999.08
2019-05-20T03:14:20.963Z,999.07
2019-05-20T03:16:23.101Z,999.08
2019-05-20T03:17:23.120Z,999.10
2019-05-20T03:19:15.341Z,999.06
2019-05-20T03:20:15.394Z,999.13
2019-05-20T03:22:07.378Z,999.09
2019-05-20T03:23:07.399Z,999.07
2019-05-20T03:25:09.528Z,999.10
2019-05-20T03:26:09.561Z,999.11
2019-05-20T03:28:01.783Z,999.13
2019-05-20T03:29:01.881Z,999.07
2019-05-20T03:31:04.010Z,999.09
2019-05-20T03:32:04.095Z,999.10
2019-05-20T03:34:06.124Z,999.09
2019-05-20T03:35:06.155Z,999.13
2019-05-20T03:37:08.293Z,999.16
2019-05-20T03:38:08.325Z,999.13
2019-05-20T03:40:10.479Z,999.15
2019-05-20T03:41:10.501Z,999.16
2019-05-20T03:43:12.648Z,999.17
2019-05-20T03:44:12.651Z,999.15
2019-05-20T03:46:04.627Z,999.13
2019-05-20T03:47:04.614Z,999.14
2019-05-20T03:48:04.655Z,999.15
2019-05-20T03:49:04.684Z,999.13
2019-05-20T03:50:04.735Z,999.13
2019-05-20T03:51:04.755Z,999.14
2019-05-20T03:52:04.789Z,999.05
2019-05-20T03:53:04.824Z,999.08
2019-05-20T03:54:04.860Z,999.08
2019-05-20T03:55:04.894Z,999.10
2019-05-20T03:56:04.930Z,999.05
2019-05-20T03:57:04.966Z,999.03
2019-05-20T03:58:04.998Z,999.05
2019-05-20T03:59:05.035Z,999.05
2019-05-20T04:00:05.069Z,999.02
2019-05-20T04:01:05.112Z,999.05
2019-05-20T04:02:05.137Z,999.01
2019-05-20T04:03:05.174Z,999.01
2019-05-20T04:04:05.210Z,999.00
2019-05-20T04:05:05.251Z,999.01
2019-05-20T04:06:05.276Z,999.02
2019-05-20T04:07:05.311Z,998.96
2019-05-20T04:08:05.348Z,998.97
2019-05-20T04:09:05.382Z,998.97
2019-05-20T04:10:05.415Z,998.93
2019-05-20T04:11:05.450Z,998.95
2019-05-20T04:12:05.486Z,998.92
2019-05-20T04:13:05.533Z,998.94
2019-05-20T04:14:05.556Z,998.92
2019-05-20T04:15:05.591Z,998.87
2019-05-20T04:16:05.625Z,998.89
2019-05-20T04:17:05.659Z,998.92
2019-05-20T04:18:05.700Z,998.90
2019-05-20T04:19:05.734Z,998.87
2019-05-20T04:20:05.770Z,998.86
2019-05-20T04:21:05.800Z,998.88
2019-05-20T04:22:05.837Z,998.89
2019-05-20T04:23:05.869Z,998.88
2019-05-20T04:24:06.173Z,998.88
2019-05-20T04:25:05.943Z,998.86
2019-05-20T04:26:05.974Z,998.88
2019-05-20T04:27:06.013Z,998.91
2019-05-20T04:28:06.048Z,998.85
2019-05-20T04:29:06.079Z,998.91
2019-05-20T04:30:06.115Z,998.88
2019-05-20T04:31:06.151Z,998.89
2019-05-20T04:32:06.182Z,998.89
2019-05-20T04:33:06.220Z,998.93
2019-05-20T04:34:06.252Z,998.89
2019-05-20T04:35:21.632Z,998.88
2019-05-20T04:36:06.325Z,998.94
2019-05-20T04:37:06.366Z,998.90
2019-05-20T04:38:06.396Z,998.92
2019-05-20T04:39:06.427Z,998.96
2019-05-20T04:40:06.469Z,998.95
2019-05-20T04:41:06.498Z,998.97
2019-05-20T04:42:07.202Z,998.96
2019-05-20T04:43:06.570Z,998.97
2019-05-20T04:44:06.602Z,998.96
2019-05-20T04:45:06.637Z,998.98
2019-05-20T04:46:06.671Z,998.97
2019-05-20T04:47:06.708Z,998.97
2019-05-20T04:48:06.747Z,999.02
2019-05-20T04:49:06.780Z,999.02
2019-05-20T04:50:06.814Z,999.03
2019-05-20T04:51:06.850Z,999.04
2019-05-20T04:52:06.908Z,999.06
2019-05-20T04:53:06.924Z,999.10
2019-05-20T04:54:06.951Z,999.10
2019-05-20T04:55:06.997Z,999.12
2019-05-20T04:56:07.022Z,999.11
2019-05-20T04:57:07.056Z,999.14
2019-05-20T04:58:07.093Z,999.10
2019-05-20T04:59:07.125Z,999.07
2019-05-20T05:00:07.165Z,999.09
2019-05-20T05:01:07.196Z,999.10
2019-05-20T05:02:07.231Z,999.07
2019-05-20T05:03:07.273Z,999.10
2019-05-20T05:04:07.305Z,999.05
2019-05-20T05:05:07.420Z,999.09
2019-05-20T05:06:07.370Z,999.11
2019-05-20T05:07:07.407Z,999.11
2019-05-20T05:08:07.441Z,999.13
2019-05-20T05:09:07.477Z,999.14
2019-05-20T05:10:07.519Z,999.15
2019-05-20T05:11:07.551Z,999.23
2019-05-20T05:12:07.581Z,999.17
2019-05-20T05:13:07.619Z,999.22
2019-05-20T05:14:07.652Z,999.25
2019-05-20T05:15:08.223Z,999.22
2019-05-20T05:16:07.721Z,999.19
2019-05-20T05:17:07.757Z,999.27
2019-05-20T05:18:07.791Z,999.30
2019-05-20T05:19:07.828Z,999.29
2019-05-20T05:20:07.865Z,999.30
2019-05-20T05:21:07.895Z,999.31
2019-05-20T05:22:07.990Z,999.28
2019-05-20T05:23:07.967Z,999.29
2019-05-20T05:24:08.002Z,999.28
2019-05-20T05:25:08.037Z,999.28
2019-05-20T05:26:08.071Z,999.29
2019-05-20T05:27:08.110Z,999.28
2019-05-20T05:28:08.142Z,999.25
2019-05-20T05:29:08.177Z,999.29
2019-05-20T05:30:08.213Z,999.30
2019-05-20T05:31:08.249Z,999.30
2019-05-20T05:32:08.282Z,999.30
2019-05-20T05:33:08.321Z,999.30
2019-05-20T05:34:08.354Z,999.30
2019-05-20T05:35:08.388Z,999.30
2019-05-20T05:36:08.422Z,999.30
2019-05-20T05:37:08.457Z,999.30
2019-05-20T05:38:08.752Z,999.29
2019-05-20T05:39:08.527Z,999.28
2019-05-20T05:40:08.668Z,999.30
2019-05-20T05:41:08.598Z,999.30
2019-05-20T05:42:08.634Z,999.30
2019-05-20T05:43:08.669Z,999.26
2019-05-20T05:44:08.707Z,999.29
2019-05-20T05:45:08.740Z,999.26
2019-05-20T05:46:08.774Z,999.21
2019-05-20T05:47:08.814Z,999.24
2019-05-20T05:48:08.853Z,999.20
2019-05-20T05:49:08.884Z,999.20
2019-05-20T05:50:08.922Z,999.24
2019-05-20T05:51:08.958Z,999.25
2019-05-20T05:52:08.988Z,999.18
2019-05-20T05:53:09.028Z,999.22
2019-05-20T05:54:09.057Z,999.19
2019-05-20T05:55:09.093Z,999.14
2019-05-20T05:56:09.128Z,999.12
2019-05-20T05:57:09.163Z,999.13
2019-05-20T05:58:09.205Z,999.11
2019-05-20T05:59:09.238Z,999.15
2019-05-20T06:00:09.271Z,999.16
2019-05-20T06:01:09.305Z,999.16
2019-05-20T06:02:09.339Z,999.19
2019-05-20T06:03:09.377Z,999.21
2019-05-20T06:04:09.414Z,999.21
2019-05-20T06:05:09.449Z,999.20
2019-05-20T06:06:12.589Z,999.20
2019-05-20T06:07:09.519Z,999.22
2019-05-20T06:08:09.556Z,999.24
2019-05-20T06:09:09.589Z,999.20
2019-05-20T06:10:09.623Z,999.21
2019-05-20T06:11:09.658Z,999.19
2019-05-20T06:12:09.696Z,999.18
2019-05-20T06:13:09.740Z,999.20
2019-05-20T06:14:09.767Z,999.20
2019-05-20T06:15:09.803Z,999.18
2019-05-20T06:16:09.836Z,999.19
2019-05-20T06:17:09.873Z,999.16
2019-05-20T06:18:09.943Z,999.19
2019-05-20T06:19:09.943Z,999.23
2019-05-20T06:20:09.983Z,999.19
2019-05-20T06:21:10.016Z,999.17
2019-05-20T06:22:10.051Z,999.17
2019-05-20T06:23:10.085Z,999.14
2019-05-20T06:24:10.123Z,999.10
2019-05-20T06:25:10.167Z,999.07
2019-05-20T06:26:10.219Z,999.08
2019-05-20T06:27:10.227Z,999.09
2019-05-20T06:28:10.264Z,999.08
2019-05-20T06:29:10.298Z,999.11
2019-05-20T06:30:10.353Z,999.10
2019-05-20T06:31:10.372Z,999.09
2019-05-20T06:32:10.408Z,999.07
2019-05-20T06:33:10.444Z,999.08
2019-05-20T06:34:10.478Z,999.06
2019-05-20T06:35:10.517Z,999.01
2019-05-20T06:36:25.726Z,998.99
2019-05-20T06:37:10.584Z,998.98
2019-05-20T06:38:10.620Z,998.96
2019-05-20T06:39:10.663Z,998.93
2019-05-20T06:40:10.693Z,998.95
2019-05-20T06:41:10.727Z,998.91
2019-05-20T06:42:10.762Z,998.93
2019-05-20T06:43:10.807Z,998.93
2019-05-20T06:44:10.836Z,998.91
2019-05-20T06:45:10.869Z,998.90
2019-05-20T06:46:10.903Z,998.92
2019-05-20T06:47:10.941Z,998.91
2019-05-20T06:48:10.977Z,998.89
2019-05-20T06:49:11.016Z,998.94
2019-05-20T06:50:11.050Z,998.97
2019-05-20T06:51:11.090Z,998.98
2019-05-20T06:52:11.147Z,999.03
2019-05-20T06:53:11.159Z,999.03
2019-05-20T06:54:11.192Z,999.00
2019-05-20T06:55:11.228Z,999.00
2019-05-20T06:56:11.281Z,999.03
2019-05-20T06:57:11.346Z,998.99
2019-05-20T06:58:11.338Z,998.98
2019-05-20T06:59:11.376Z,999.01
2019-05-20T07:00:11.420Z,999.01
2019-05-20T07:01:11.445Z,998.99
2019-05-20T07:02:11.484Z,999.00
2019-05-20T07:03:11.517Z,999.02
2019-05-20T07:04:11.553Z,999.02
2019-05-20T07:05:11.587Z,999.00
2019-05-20T07:06:11.625Z,999.03
2019-05-20T07:07:20.411Z,999.00
2019-05-20T07:08:11.713Z,998.96
2019-05-20T07:09:11.733Z,998.97
2019-05-20T07:10:11.768Z,998.95
2019-05-20T07:11:11.805Z,998.93
2019-05-20T07:12:11.840Z,998.87
2019-05-20T07:13:11.877Z,998.88
2019-05-20T07:14:11.917Z,998.89
2019-05-20T07:15:11.950Z,998.88
2019-05-20T07:16:11.993Z,998.84
2019-05-20T07:17:12.022Z,998.83
2019-05-20T07:18:12.065Z,998.84
2019-05-20T07:19:12.100Z,998.83
2019-05-20T07:20:12.130Z,998.89
2019-05-20T07:21:12.166Z,998.90
2019-05-20T07:22:12.208Z,998.87
2019-05-20T07:23:12.239Z,998.87
2019-05-20T07:24:12.275Z,998.89
2019-05-20T07:25:12.334Z,998.89
2019-05-20T07:26:12.347Z,998.91
2019-05-20T07:27:12.385Z,998.90
2019-05-20T07:28:12.435Z,998.90
2019-05-20T07:29:12.457Z,998.88
2019-05-20T07:30:15.232Z,998.87
2019-05-20T07:31:12.531Z,998.87
2019-05-20T07:32:12.571Z,998.85
2019-05-20T07:33:12.618Z,998.80
2019-05-20T07:34:12.642Z,998.84
2019-05-20T07:35:28.783Z,998.78
2019-05-20T07:36:12.716Z,998.78
2019-05-20T07:37:12.749Z,998.81
2019-05-20T07:38:12.789Z,998.83
2019-05-20T07:39:12.825Z,998.85
2019-05-20T07:40:12.860Z,998.79
2019-05-20T07:41:12.898Z,998.83
2019-05-20T07:42:12.938Z,998.79
2019-05-20T07:43:13.022Z,998.78
2019-05-20T07:44:13.007Z,998.78
2019-05-20T07:45:13.050Z,998.77
2019-05-20T07:46:13.080Z,998.81
2019-05-20T07:47:13.143Z,998.77
2019-05-20T07:48:13.154Z,998.81
2019-05-20T07:49:13.192Z,998.81
2019-05-20T07:50:13.227Z,998.82
2019-05-20T07:51:13.270Z,998.81
2019-05-20T07:52:13.310Z,998.78
2019-05-20T07:53:13.344Z,998.70
2019-05-20T07:54:13.377Z,998.73
2019-05-20T07:55:13.412Z,998.67
2019-05-20T07:56:13.450Z,998.70
2019-05-20T07:57:13.486Z,998.73
2019-05-20T07:58:13.563Z,998.67
2019-05-20T07:59:13.564Z,998.74
2019-05-20T08:00:13.600Z,998.73
2019-05-20T08:01:13.639Z,998.69
2019-05-20T08:02:13.675Z,998.73
2019-05-20T08:03:13.710Z,998.73
2019-05-20T08:04:13.814Z,998.67
2019-05-20T08:05:13.790Z,998.73
2019-05-20T08:06:13.821Z,998.73
2019-05-20T08:07:27.492Z,998.71
2019-05-20T08:08:14.163Z,998.73
2019-05-20T08:09:13.941Z,998.73
2019-05-20T08:10:13.977Z,998.75
2019-05-20T08:11:14.010Z,998.72
2019-05-20T08:12:14.050Z,998.71
2019-05-20T08:13:14.087Z,998.71
2019-05-20T08:14:14.125Z,998.71
2019-05-20T08:15:14.163Z,998.69
2019-05-20T08:16:14.199Z,998.72
2019-05-20T08:17:14.235Z,998.68
2019-05-20T08:18:14.276Z,998.71
2019-05-20T08:19:14.321Z,998.62
2019-05-20T08:20:14.349Z,998.66
2019-05-20T08:21:14.388Z,998.68
2019-05-20T08:22:14.429Z,998.69
2019-05-20T08:23:14.536Z,998.65
2019-05-20T08:24:14.499Z,998.72
2019-05-20T08:25:14.537Z,998.69
2019-05-20T08:26:14.575Z,998.71
2019-05-20T08:27:14.612Z,998.72
2019-05-20T08:28:14.650Z,998.71
2019-05-20T08:29:14.689Z,998.72
2019-05-20T08:30:14.727Z,998.72
2019-05-20T08:31:14.765Z,998.71
2019-05-20T08:32:14.803Z,998.69
2019-05-20T08:33:14.839Z,998.61
2019-05-20T08:34:14.879Z,998.73
2019-05-20T08:35:14.918Z,998.73
2019-05-20T08:36:14.964Z,998.70
2019-05-20T08:37:15.002Z,998.72
2019-05-20T08:38:15.033Z,998.64
2019-05-20T08:39:15.075Z,998.70
2019-05-20T08:40:15.110Z,998.70
2019-05-20T08:41:15.145Z,998.73
2019-05-20T08:42:15.185Z,998.80
2019-05-20T08:43:21.798Z,998.73
2019-05-20T08:45:17.675Z,998.78
2019-05-20T08:46:17.727Z,998.75
2019-05-20T08:48:09.933Z,998.74
2019-05-20T08:49:11.406Z,998.74
2019-05-20T08:51:12.077Z,998.74
2019-05-20T08:52:12.182Z,998.72
2019-05-20T08:54:15.366Z,998.61
2019-05-20T08:55:15.417Z,998.64
2019-05-20T08:57:08.639Z,998.64
2019-05-20T08:58:08.670Z,998.61
2019-05-20T08:59:08.696Z,998.54
2019-05-20T09:00:08.748Z,998.65
2019-05-20T09:01:10.173Z,998.66
2019-05-20T09:02:08.816Z,998.66
2019-05-20T09:03:08.867Z,998.66
2019-05-20T09:04:08.907Z,998.61
2019-05-20T09:05:08.946Z,998.59
2019-05-20T09:06:08.982Z,998.58
2019-05-20T09:07:09.013Z,998.58
2019-05-20T09:08:09.057Z,998.61
2019-05-20T09:09:12.168Z,998.62
2019-05-20T09:10:09.138Z,998.61
2019-05-20T09:11:09.170Z,998.60
2019-05-20T09:12:09.215Z,998.61
2019-05-20T09:13:09.271Z,998.61
2019-05-20T09:14:09.292Z,998.62
2019-05-20T09:15:09.319Z,998.61
2019-05-20T09:16:09.355Z,998.60
2019-05-20T09:17:09.411Z,998.59
2019-05-20T09:18:09.444Z,998.61
2019-05-20T09:19:09.497Z,998.57
2019-05-20T09:20:09.518Z,998.57
2019-05-20T09:21:09.641Z,998.50
2019-05-20T09:22:09.613Z,998.52
2019-05-20T09:23:09.690Z,998.45
2019-05-20T09:24:09.683Z,998.44
2019-05-20T09:25:09.929Z,998.43
2019-05-20T09:26:09.760Z,998.44
2019-05-20T09:27:09.801Z,998.48
2019-05-20T09:28:09.843Z,998.46
2019-05-20T09:29:11.461Z,998.44
2019-05-20T09:30:09.968Z,998.48
2019-05-20T09:31:10.067Z,998.46
2019-05-20T09:32:10.001Z,998.45
2019-05-20T09:33:10.042Z,998.45
2019-05-20T09:34:10.091Z,998.49
2019-05-20T09:35:10.122Z,998.44
2019-05-20T09:36:10.172Z,998.48
2019-05-20T09:37:10.199Z,998.45
2019-05-20T09:38:19.988Z,998.41
2019-05-20T09:39:10.298Z,998.40
2019-05-20T09:40:10.329Z,998.43
2019-05-20T09:41:10.343Z,998.43
2019-05-20T09:42:10.436Z,998.40
2019-05-20T09:43:10.432Z,998.36
2019-05-20T09:44:10.484Z,998.36
2019-05-20T09:45:10.532Z,998.35
2019-05-20T09:46:10.553Z,998.36
2019-05-20T09:47:10.606Z,998.36
2019-05-20T09:48:10.634Z,998.29
2019-05-20T09:49:10.676Z,998.28
2019-05-20T09:50:10.717Z,998.28
2019-05-20T09:51:10.763Z,998.30
2019-05-20T09:52:10.809Z,998.27
2019-05-20T09:53:10.833Z,998.25
2019-05-20T09:54:10.877Z,998.27
2019-05-20T09:55:10.917Z,998.31
2019-05-20T09:56:10.958Z,998.31
2019-05-20T09:57:10.998Z,998.28
2019-05-20T09:58:11.061Z,998.28
2019-05-20T09:59:11.087Z,998.27
2019-05-20T10:00:11.119Z,998.24
2019-05-20T10:01:11.172Z,998.23
2019-05-20T10:02:11.207Z,998.28
2019-05-20T10:03:11.284Z,998.23
2019-05-20T10:04:11.286Z,998.32
2019-05-20T10:05:11.326Z,998.29
2019-05-20T10:06:11.356Z,998.29
2019-05-20T10:07:11.402Z,998.34
2019-05-20T10:08:11.446Z,998.30
2019-05-20T10:09:11.496Z,998.29
2019-05-20T10:10:11.517Z,998.29
2019-05-20T10:11:11.568Z,998.27
2019-05-20T10:12:11.612Z,998.26
2019-05-20T10:13:11.689Z,998.31
2019-05-20T10:14:11.692Z,998.24
2019-05-20T10:15:11.731Z,998.23
2019-05-20T10:16:11.765Z,998.25
2019-05-20T10:17:11.819Z,998.27
2019-05-20T10:18:11.857Z,998.30
2019-05-20T10:19:11.898Z,998.29
2019-05-20T10:20:11.939Z,998.31
2019-05-20T10:21:11.982Z,998.23
2019-05-20T10:22:12.015Z,998.29
2019-05-20T10:23:15.772Z,998.29
2019-05-20T10:24:12.105Z,998.27
2019-05-20T10:25:12.137Z,998.30
2019-05-20T10:26:12.176Z,998.31
2019-05-20T10:27:12.225Z,998.27
2019-05-20T10:28:12.272Z,998.24
2019-05-20T10:29:12.321Z,998.18
2019-05-20T10:30:12.355Z,998.24
2019-05-20T10:31:12.403Z,998.22
2019-05-20T10:32:12.441Z,998.25
2019-05-20T10:33:12.489Z,998.21
2019-05-20T10:34:12.528Z,998.20
2019-05-20T10:35:12.565Z,998.20
2019-05-20T10:36:12.621Z,998.14
2019-05-20T10:37:12.652Z,998.11
2019-05-20T10:38:12.687Z,998.14
2019-05-20T10:39:12.731Z,998.10
2019-05-20T10:40:12.775Z,998.08
2019-05-20T10:41:12.803Z,998.06
2019-05-20T10:42:12.850Z,998.06
2019-05-20T10:43:12.922Z,998.09
2019-05-20T10:44:12.941Z,998.08
2019-05-20T10:45:12.966Z,998.12
2019-05-20T10:46:13.025Z,998.11
2019-05-20T10:47:13.072Z,998.17
2019-05-20T10:48:13.112Z,998.13
2019-05-20T10:49:13.144Z,998.11
2019-05-20T10:50:13.174Z,998.13
2019-05-20T10:51:13.236Z,998.15
2019-05-20T10:52:13.281Z,998.13
2019-05-20T10:53:13.309Z,998.09
2019-05-20T10:54:13.363Z,998.07
2019-05-20T10:55:13.395Z,998.05
2019-05-20T10:56:13.832Z,998.05
2019-05-20T10:57:13.491Z,998.02
2019-05-20T10:58:13.532Z,998.07
2019-05-20T10:59:13.585Z,998.03
2019-05-20T11:00:13.644Z,998.08
2019-05-20T11:01:13.660Z,998.01
2019-05-20T11:02:13.703Z,998.05
2019-05-20T11:03:13.753Z,998.06
2019-05-20T11:04:13.786Z,998.07
2019-05-20T11:05:13.831Z,998.07
2019-05-20T11:06:13.875Z,998.05
2019-05-20T11:07:13.933Z,998.05
2019-05-20T11:08:13.955Z,998.07
2019-05-20T11:09:14.661Z,998.06
2019-05-20T11:10:14.028Z,998.08
2019-05-20T11:11:14.709Z,998.07
2019-05-20T11:12:14.129Z,998.09
2019-05-20T11:13:14.179Z,998.06
2019-05-20T11:14:14.215Z,998.15
2019-05-20T11:15:14.262Z,998.12
2019-05-20T11:16:14.343Z,998.08
2019-05-20T11:17:15.126Z,998.15
2019-05-20T11:18:14.390Z,998.14
2019-05-20T11:19:14.441Z,998.12
2019-05-20T11:20:14.571Z,998.20
2019-05-20T11:21:14.675Z,998.19
2019-05-20T11:22:14.542Z,998.19
2019-05-20T11:23:14.588Z,998.09
2019-05-20T11:24:14.635Z,998.12
2019-05-20T11:25:14.664Z,998.12
2019-05-20T11:26:14.723Z,998.11
2019-05-20T11:27:14.753Z,998.14
2019-05-20T11:28:14.809Z,998.08
2019-05-20T11:29:14.846Z,998.15
2019-05-20T11:30:14.886Z,998.12
2019-05-20T11:31:14.930Z,998.15
2019-05-20T11:32:14.975Z,998.13
2019-05-20T11:33:15.019Z,998.11
2019-05-20T11:34:15.060Z,998.12
2019-05-20T11:35:15.088Z,998.11
2019-05-20T11:36:15.140Z,998.08
2019-05-20T11:37:15.176Z,998.10
2019-05-20T11:38:15.240Z,998.06
2019-05-20T11:39:31.376Z,998.11
2019-05-20T11:40:15.583Z,998.07
2019-05-20T11:41:15.355Z,998.10
2019-05-20T11:42:15.396Z,998.10
2019-05-20T11:43:15.432Z,998.05
2019-05-20T11:44:15.465Z,998.08
2019-05-20T11:45:15.521Z,998.05
2019-05-20T11:46:15.562Z,998.06
2019-05-20T11:47:15.593Z,998.06
2019-05-20T11:48:15.638Z,998.07
2019-05-20T11:49:15.684Z,998.07
2019-05-20T11:50:15.729Z,998.06
2019-05-20T11:51:15.760Z,998.08
2019-05-20T11:52:15.810Z,998.09
2019-05-20T11:53:15.842Z,998.07
2019-05-20T11:54:15.886Z,998.10
2019-05-20T11:55:15.919Z,998.10
2019-05-20T11:56:15.979Z,998.10
2019-05-20T11:57:16.004Z,998.08
2019-05-20T11:58:16.604Z,998.06
2019-05-20T11:59:16.093Z,998.06
2019-05-20T12:00:16.136Z,998.08
2019-05-20T12:01:16.178Z,998.07
2019-05-20T12:02:16.208Z,998.03
2019-05-20T12:03:16.261Z,998.04
2019-05-20T12:04:16.299Z,998.02
2019-05-20T12:05:16.357Z,998.00
2019-05-20T12:06:16.380Z,998.00
2019-05-20T12:07:16.427Z,997.97
2019-05-20T12:08:16.461Z,997.94
2019-05-20T12:09:16.498Z,997.92
2019-05-20T12:10:16.550Z,997.93
2019-05-20T12:11:16.583Z,997.94
2019-05-20T12:12:16.629Z,997.97
2019-05-20T12:13:16.673Z,998.00
2019-05-20T12:14:16.707Z,998.02
2019-05-20T12:15:16.752Z,997.98
2019-05-20T12:16:16.794Z,997.97
2019-05-20T12:17:16.826Z,997.91
2019-05-20T12:18:16.873Z,997.91
2019-05-20T12:19:16.931Z,997.93
2019-05-20T12:20:16.959Z,997.93
2019-05-20T12:21:16.999Z,997.89
2019-05-20T12:22:17.040Z,997.90
2019-05-20T12:23:17.080Z,997.88
2019-05-20T12:24:17.110Z,997.90
2019-05-20T12:25:17.153Z,997.81
2019-05-20T12:26:17.207Z,997.80
2019-05-20T12:27:17.261Z,997.81
2019-05-20T12:28:17.276Z,997.80
2019-05-20T12:29:17.327Z,997.78
2019-05-20T12:30:17.375Z,997.76
2019-05-20T12:31:17.411Z,997.75
2019-05-20T12:32:17.452Z,997.67
2019-05-20T12:33:19.394Z,997.63
2019-05-20T12:34:17.544Z,997.66
2019-05-20T12:35:17.572Z,997.63
2019-05-20T12:36:17.611Z,997.59
2019-05-20T12:37:17.642Z,997.56
2019-05-20T12:38:17.691Z,997.54
2019-05-20T12:39:17.740Z,997.54
2019-05-20T12:40:17.763Z,997.49
2019-05-20T12:41:17.816Z,997.51
2019-05-20T12:42:17.854Z,997.47
2019-05-20T12:43:17.913Z,997.48
2019-05-20T12:44:17.942Z,997.50
2019-05-20T12:45:17.983Z,997.43
2019-05-20T12:46:18.012Z,997.46
2019-05-20T12:47:18.061Z,997.46
2019-05-20T12:48:18.106Z,997.46
2019-05-20T12:49:18.227Z,997.41
2019-05-20T12:50:18.180Z,997.39
2019-05-20T12:51:18.228Z,997.41
2019-05-20T12:52:18.260Z,997.37
2019-05-20T12:53:18.331Z,997.39
2019-05-20T12:54:18.342Z,997.34
2019-05-20T12:55:18.394Z,997.28
2019-05-20T12:56:19.578Z,997.26
2019-05-20T12:57:18.482Z,997.25
2019-05-20T12:58:18.505Z,997.26
2019-05-20T12:59:18.575Z,997.22
2019-05-20T13:00:18.600Z,997.27
2019-05-20T13:01:18.643Z,997.28
2019-05-20T13:02:18.682Z,997.26
2019-05-20T13:03:18.916Z,997.25
2019-05-20T13:04:18.761Z,997.26
2019-05-20T13:05:18.797Z,997.21
2019-05-20T13:06:18.831Z,997.21
2019-05-20T13:07:18.893Z,997.23
2019-05-20T13:08:18.910Z,997.16
2019-05-20T13:09:18.970Z,997.12
2019-05-20T13:10:30.113Z,997.11
2019-05-20T13:11:19.045Z,997.05
2019-05-20T13:12:19.086Z,997.01
2019-05-20T13:13:19.152Z,997.03
2019-05-20T13:14:19.179Z,997.03
2019-05-20T13:15:19.211Z,997.09
2019-05-20T13:16:19.258Z,997.04
2019-05-20T13:17:19.318Z,997.04
2019-05-20T13:18:19.337Z,997.03
2019-05-20T13:19:19.385Z,997.00
2019-05-20T13:20:19.403Z,996.97
2019-05-20T13:21:19.465Z,996.94
2019-05-20T13:22:19.510Z,996.87
2019-05-20T13:23:19.542Z,996.85
2019-05-20T13:24:19.585Z,996.80
2019-05-20T13:25:19.620Z,996.77
2019-05-20T13:26:19.649Z,996.78
2019-05-20T13:27:19.711Z,996.78
2019-05-20T13:28:19.733Z,996.78
2019-05-20T13:29:19.784Z,996.78
2019-05-20T13:30:19.811Z,996.76
2019-05-20T13:31:19.868Z,996.82
2019-05-20T13:32:19.892Z,996.78
2019-05-20T13:33:19.952Z,996.85
2019-05-20T13:34:19.979Z,996.85
2019-05-20T13:35:20.056Z,996.92
2019-05-20T13:36:20.059Z,996.96
2019-05-20T13:37:20.106Z,996.95
2019-05-20T13:38:20.155Z,996.98
2019-05-20T13:39:20.193Z,996.99
2019-05-20T13:40:20.220Z,997.05
2019-05-20T13:41:20.281Z,997.09
2019-05-20T13:42:20.306Z,997.09
2019-05-20T13:43:20.351Z,997.08
2019-05-20T13:44:20.394Z,997.13
2019-05-20T13:45:20.440Z,997.09
2019-05-20T13:46:20.490Z,997.01
2019-05-20T13:47:20.522Z,996.98
2019-05-20T13:48:20.544Z,996.96